createdAt,value
2019-03-20T05:03:58.850Z,102897.82
2019-03-20T05:07:26.679Z,102902.78
2019-03-20T05:10:54.509Z,102901.6
2019-03-20T05:14:22.355Z,102899.98
2019-03-20T05:17:50.188Z,102899.71
2019-03-20T05:21:18.184Z,102898.68
2019-03-20T05:24:47.000Z,102893.85
2019-03-20T05:28:15.844Z,102905.15
2019-03-20T05:31:43.861Z,102906
2019-03-20T05:35:11.768Z,102892.76
2019-03-20T05:38:39.602Z,102892.14
2019-03-20T05:42:07.599Z,102889.9
2019-03-20T05:45:36.416Z,102885.81
2019-03-20T05:49:04.250Z,102885.08
2019-03-20T05:52:33.092Z,102892.63
2019-03-20T05:56:00.934Z,102896.37
2019-03-20T05:59:28.754Z,102898.93
2019-03-20T06:02:57.747Z,102894.75
2019-03-20T06:06:25.600Z,102903.5
2019-03-20T06:09:53.427Z,102903.78
2019-03-20T06:13:21.276Z,102909.76
2019-03-20T06:16:49.115Z,102910.75
2019-03-20T06:20:17.002Z,102907.3
2019-03-20T06:23:44.859Z,102912.43
2019-03-20T06:27:12.783Z,102919.43
2019-03-20T06:30:41.760Z,102921.89
2019-03-20T06:34:09.624Z,102916.17
2019-03-20T06:37:37.520Z,102919.1
2019-03-20T06:41:05.383Z,102926.35
2019-03-20T06:44:33.231Z,102919.2
2019-03-20T06:48:02.231Z,102912.85
2019-03-20T06:51:30.100Z,102917.1
2019-03-20T06:54:58.127Z,102924.81
2019-03-20T06:58:26.963Z,102915.9
2019-03-20T07:01:54.820Z,102920.29
2019-03-20T07:05:23.632Z,102925.44
2019-03-20T07:08:51.589Z,102922.06
2019-03-20T07:12:19.434Z,102915.65
2019-03-20T07:15:47.309Z,102909.09
2019-03-20T07:19:15.142Z,102897.51
2019-03-20T07:22:42.981Z,102901.64
2019-03-20T07:26:10.802Z,102906.1
2019-03-20T07:29:38.802Z,102904.05
2019-03-20T07:33:06.672Z,102902.82
2019-03-20T07:36:34.496Z,102913.17
2019-03-20T07:40:02.337Z,102903.03
2019-03-20T07:43:30.166Z,102907.2
2019-03-20T07:46:58.117Z,102910.52
2019-03-20T07:50:26.261Z,102910.11
2019-03-20T07:53:54.036Z,102909.18
2019-03-20T07:57:21.871Z,102912.01
2019-03-20T08:00:49.697Z,102917.65
2019-03-20T08:04:18.528Z,102918.32
2019-03-20T08:07:46.395Z,102919.81
2019-03-20T08:11:14.237Z,102923.09
2019-03-20T08:14:42.220Z,102926.5
2019-03-20T08:18:10.054Z,102915.12
2019-03-20T08:21:37.891Z,102920.55
2019-03-20T08:25:05.731Z,102923.91
2019-03-20T08:28:34.560Z,102912.03
2019-03-20T08:32:02.576Z,102915.33
2019-03-20T08:35:31.492Z,102919.21
2019-03-20T08:39:00.848Z,102918.67
2019-03-20T08:42:28.672Z,102913.03
2019-03-20T08:45:57.520Z,102920.49
2019-03-20T08:49:25.421Z,102915.53
2019-03-20T08:52:53.317Z,102916.54
2019-03-20T08:56:21.228Z,102920.33
2019-03-20T08:59:49.070Z,102914.75
2019-03-20T09:03:16.889Z,102916.09
2019-03-20T09:06:44.747Z,102921.15
2019-03-20T09:10:12.582Z,102915.56
2019-03-20T09:13:40.406Z,102906.7
2019-03-20T09:17:08.473Z,102913.65
2019-03-20T09:20:38.324Z,102908.39
2019-03-20T09:24:07.176Z,102908.81
2019-03-20T09:27:35.018Z,102910.96
2019-03-20T09:31:03.092Z,102913.76
2019-03-20T09:34:31.023Z,102917.27
2019-03-20T09:37:59.851Z,102915.82
2019-03-20T09:41:27.693Z,102910.53
2019-03-20T09:44:55.542Z,102915.89
2019-03-20T09:48:23.362Z,102927.57
2019-03-20T09:51:52.199Z,102912.84
2019-03-20T09:55:20.035Z,102916.14
2019-03-20T09:58:48.011Z,102913.15
2019-03-20T10:02:15.849Z,102919
2019-03-20T10:05:43.695Z,102913.39
2019-03-20T10:09:12.525Z,102908.07
2019-03-20T10:12:40.365Z,102893.93
2019-03-20T10:16:08.194Z,102906.7
2019-03-20T10:19:36.523Z,102895.61
2019-03-20T10:23:04.120Z,102918.89
2019-03-20T10:26:31.952Z,102914.69
2019-03-20T10:30:00.409Z,102904.78
2019-03-20T10:33:28.209Z,102899.46
2019-03-20T10:36:56.063Z,102908.21
2019-03-20T10:40:23.904Z,102900.65
2019-03-20T10:43:52.870Z,102895.91
2019-03-20T10:47:21.715Z,102892.03
2019-03-20T10:50:49.561Z,102905.75
2019-03-20T10:54:18.382Z,102888.08
2019-03-20T10:57:46.237Z,102894.81
2019-03-20T11:01:14.079Z,102902.28
2019-03-20T11:04:42.137Z,102903.76
2019-03-20T11:08:09.987Z,102902.9
2019-03-20T11:11:38.818Z,102912.71
2019-03-20T11:15:07.736Z,102929.64
2019-03-20T11:18:35.598Z,102909.21
2019-03-20T11:22:04.431Z,102919.15
2019-03-20T11:25:35.324Z,102922.92
2019-03-20T11:29:04.180Z,102917.19
2019-03-20T11:32:32.115Z,102928.83
2019-03-20T11:35:59.956Z,102929.85
2019-03-20T11:39:30.154Z,102927.75
2019-03-20T11:42:57.996Z,102919.89
2019-03-20T11:46:25.845Z,102916.58
2019-03-20T11:49:53.678Z,102917.79
2019-03-20T11:53:21.528Z,102917.32
2019-03-20T11:56:49.365Z,102906.5
2019-03-20T12:00:17.205Z,102912.64
2019-03-20T12:03:46.332Z,102910.31
2019-03-20T12:07:15.025Z,102910.21
2019-03-20T12:10:42.848Z,102898.01
2019-03-20T12:14:10.688Z,102894.89
2019-03-20T12:17:38.525Z,102893.85
2019-03-20T12:21:06.367Z,102894.14
2019-03-20T12:24:34.214Z,102890.73
2019-03-20T12:28:02.243Z,102897.71
2019-03-20T12:31:31.180Z,102895.92
2019-03-20T12:34:59.071Z,102901.75
2019-03-20T12:38:26.964Z,102894.66
2019-03-20T12:41:54.828Z,102905.1
2019-03-20T12:45:22.643Z,102904.94
2019-03-20T12:48:50.621Z,102904.56
2019-03-20T12:52:18.460Z,102889.97
2019-03-20T12:55:46.293Z,102860.76
2019-03-20T12:59:15.129Z,102876.6
2019-03-20T13:02:42.976Z,102881.76
2019-03-20T13:06:11.787Z,102866.2
2019-03-20T13:09:39.777Z,102864.48
2019-03-20T13:13:07.647Z,102877.1
2019-03-20T13:16:36.447Z,102875
2019-03-20T13:20:05.289Z,102862.06
2019-03-20T13:23:33.138Z,102861.85
2019-03-20T13:27:00.986Z,102856.23
2019-03-20T13:30:29.120Z,102837.45
2019-03-20T13:33:57.053Z,102833.13
2019-03-20T13:37:24.900Z,102835.67
2019-03-20T13:40:52.748Z,102827.01
2019-03-20T13:44:20.588Z,102820.68
2019-03-20T13:47:48.434Z,102821.6
2019-03-20T13:51:16.579Z,102828.57
2019-03-20T13:54:44.255Z,102826.92
2019-03-20T13:58:12.089Z,102829.54
2019-03-20T14:01:39.930Z,102833.82
2019-03-20T14:05:07.778Z,102837.98
2019-03-20T14:08:35.620Z,102844.15
2019-03-20T14:12:03.487Z,102835.58
2019-03-20T14:15:31.530Z,102838.03
2019-03-20T14:18:59.382Z,102837.79
2019-03-20T14:22:27.251Z,102847.14
2019-03-20T14:25:57.019Z,102857.68
2019-03-20T14:29:25.076Z,102857.31
2019-03-20T14:32:52.943Z,102864.1
2019-03-20T14:36:23.417Z,102866.13
2019-03-20T14:39:51.252Z,102865.88
2019-03-20T14:43:19.129Z,102867.95
2019-03-20T14:46:46.919Z,102868.03
2019-03-20T14:50:14.754Z,102863.5
2019-03-20T14:53:43.578Z,102870.75
2019-03-20T14:57:11.569Z,102878.21
2019-03-20T15:00:40.403Z,102873.18
2019-03-20T15:04:08.238Z,102875.95
2019-03-20T15:07:36.088Z,102877.95
2019-03-20T15:11:03.932Z,102877.67
2019-03-20T15:14:31.787Z,102878.48
2019-03-20T15:17:59.823Z,102881.71
2019-03-20T15:21:27.656Z,102883.42
2019-03-20T15:24:55.510Z,102889.29
2019-03-20T15:28:23.540Z,102887.75
2019-03-20T15:31:51.741Z,102886.85
2019-03-20T15:35:19.837Z,102885.73
2019-03-20T15:38:49.485Z,102882.22
2019-03-20T15:42:24.863Z,102884.31
2019-03-20T15:45:53.689Z,102873.89
2019-03-20T15:49:21.519Z,102876.84
2019-03-20T15:52:49.354Z,102883.18
2019-03-20T15:56:17.216Z,102884.21
2019-03-20T15:59:45.947Z,102879.42
2019-03-20T16:03:13.777Z,102890.64
2019-03-20T16:06:41.632Z,102893.95
2019-03-20T16:10:10.483Z,102911.32
2019-03-20T16:13:38.319Z,102900.89
2019-03-20T16:17:06.145Z,102911.03
2019-03-20T16:20:33.979Z,102896.32
2019-03-20T16:24:01.816Z,102898.97
2019-03-20T16:27:29.685Z,102899.35
2019-03-20T16:30:57.588Z,102894.07
2019-03-20T16:34:25.419Z,102899.46
2019-03-20T16:37:53.255Z,102913.29
2019-03-20T16:41:21.098Z,102915.1
2019-03-20T16:44:48.935Z,102906.28
2019-03-20T16:48:16.796Z,102903.56
2019-03-20T16:51:44.625Z,102897.93
2019-03-20T16:55:12.462Z,102894.56
2019-03-20T16:58:40.307Z,102904.34
2019-03-20T17:02:08.136Z,102907.71
2019-03-20T17:05:35.967Z,102922.14
2019-03-20T17:09:03.810Z,102925.25
2019-03-20T17:12:31.630Z,102937.57
2019-03-20T17:15:59.459Z,102934.38
2019-03-20T17:19:27.308Z,102932.78
2019-03-20T17:22:55.186Z,102935.06
2019-03-20T17:26:23.016Z,102937.51
2019-03-20T17:29:50.908Z,102929.75
2019-03-20T17:33:19.452Z,102936.6
2019-03-20T17:36:47.291Z,102934.65
2019-03-20T17:40:15.130Z,102936.76
2019-03-20T17:43:43.761Z,102922.89
2019-03-20T17:47:11.603Z,102928.39
2019-03-20T17:50:39.437Z,102925.68
2019-03-20T17:54:07.284Z,102937.79
2019-03-20T17:57:35.104Z,102935.38
2019-03-20T18:01:02.951Z,102941.19
2019-03-20T18:04:30.787Z,102944.92
2019-03-20T18:07:58.671Z,102938.45
2019-03-20T18:11:26.497Z,102935.09
2019-03-20T18:14:54.351Z,102940.59
2019-03-20T18:18:22.189Z,102947.38
2019-03-20T18:21:50.021Z,102965.62
2019-03-20T18:25:17.865Z,102966.32
2019-03-20T18:28:45.703Z,102973.9
2019-03-20T18:32:13.539Z,102980.35
2019-03-20T18:35:41.387Z,102981.46
2019-03-20T18:39:09.239Z,102989.39
2019-03-20T18:42:37.094Z,102993.43
2019-03-20T18:46:04.958Z,103006.03
2019-03-20T18:49:32.797Z,103012.34
2019-03-20T18:53:00.629Z,103019.78
2019-03-20T18:56:29.445Z,103018.79
2019-03-20T18:59:57.409Z,103021.21
2019-03-20T19:03:26.216Z,103021.7
2019-03-20T19:06:54.066Z,103011.2
2019-03-20T19:10:21.961Z,103016.74
2019-03-20T19:13:49.808Z,103037.22
2019-03-20T19:17:17.658Z,103047.4
2019-03-20T19:20:46.484Z,103045.46
2019-03-20T19:24:14.306Z,103044.15
2019-03-20T19:27:43.136Z,103041.4
2019-03-20T19:31:11.043Z,103039.35
2019-03-20T19:34:38.894Z,103046.13
2019-03-20T19:38:06.740Z,103058.89
2019-03-20T19:41:34.638Z,103066.48
2019-03-20T19:45:02.538Z,103066.79
2019-03-20T19:48:31.414Z,103075.03
2019-03-20T19:51:59.285Z,103076.15
2019-03-20T19:55:28.143Z,103064.37
2019-03-20T19:58:56.067Z,103067.42
2019-03-20T20:02:24.908Z,103066.78
2019-03-20T20:05:55.340Z,103073.57
2019-03-20T20:09:24.420Z,103082.12
2019-03-20T20:12:52.349Z,103088.57
2019-03-20T20:16:21.990Z,103087.28
2019-03-20T20:19:50.925Z,103092.29
2019-03-20T20:23:20.312Z,103079.03
2019-03-20T20:26:48.173Z,103059.38
2019-03-20T20:30:18.763Z,103064.35
2019-03-20T20:33:46.628Z,103055.02
2019-03-20T20:37:14.545Z,103041.93
2019-03-20T20:40:43.219Z,103041.94
2019-03-20T20:44:11.095Z,103043.21
2019-03-20T20:47:38.980Z,103043.7
2019-03-20T20:51:06.851Z,103052.28
2019-03-20T20:54:34.748Z,103049.2
2019-03-20T20:58:03.541Z,103057.26
2019-03-20T21:01:31.989Z,103044.01
2019-03-20T21:04:59.855Z,103039.32
2019-03-20T21:08:27.755Z,103041.59
2019-03-20T21:11:56.555Z,103042.89
2019-03-20T21:15:25.438Z,103038.03
2019-03-20T21:18:53.331Z,103038.34
2019-03-20T21:22:22.753Z,103047.17
2019-03-20T21:25:51.353Z,103047.51
2019-03-20T21:29:20.231Z,103049.4
2019-03-20T21:32:48.115Z,103056
2019-03-20T21:36:15.932Z,103059.75
2019-03-20T21:39:43.789Z,103063.76
2019-03-20T21:43:11.745Z,103065.68
2019-03-20T21:46:39.561Z,103076.01
2019-03-20T21:50:07.447Z,103074.06
2019-03-20T21:53:35.353Z,103081.96
2019-03-20T21:57:03.197Z,103075.06
2019-03-20T22:00:31.021Z,103080.53
2019-03-20T22:03:58.872Z,103087.46
2019-03-20T22:07:26.699Z,103097.31
2019-03-20T22:10:54.533Z,103099.75
2019-03-20T22:14:22.411Z,103116.85
2019-03-20T22:17:52.218Z,103126.85
2019-03-20T22:21:20.057Z,103130.07
2019-03-20T22:24:47.892Z,103124.28
2019-03-20T22:28:15.735Z,103127.19
2019-03-20T22:31:43.554Z,103132.84
2019-03-20T22:35:11.398Z,103142.84
2019-03-20T22:38:39.213Z,103147.35
2019-03-20T22:42:07.055Z,103149
2019-03-20T22:45:34.897Z,103161.91
2019-03-20T22:49:02.721Z,103160.29
2019-03-20T22:52:31.571Z,103154.01
2019-03-20T22:55:59.414Z,103146.42
2019-03-20T22:59:28.233Z,103144.96
